METAR Reports From Nearby Airports

 

KLUD - Decatur, Texas, USA
Distance from Wildwood: OSO 5mi, 8km
aktuell: Aug 13, 2020 3:55am
klar
klar
 Wind von S
Wind: S 12 mph , 19 km/h
Temperatur: 84°F , 29°C
Heat Index: 87°F , 31°C
Taupunkt: 68°F , 20°C
Luftfeuchte: 58%
Luftdruck: 29.91 inHg , 1012.9 hPa
Clouds: klar
Visibility: 7 miles , 11 km
2020/08/13 08:55 KLUD 130855Z AUTO 17010KT 7SM CLR 29/20 A2991 RMK AO2 T02900200
KXBP - Bridgeport, Texas, USA
Distance from Wildwood: WSW 11mi, 18km
aktuell: Aug 13, 2020 3:55am
klar
klar
 Wind von S
Wind: S 8 mph , 13 km/h
Temperatur: 82°F , 28°C
Heat Index: 84°F , 29°C
Taupunkt: 66°F , 19°C
Luftfeuchte: 58%
Luftdruck: 29.91 inHg , 1012.9 hPa
Clouds: klar
Visibility: 10 miles , 16 km
2020/08/13 08:55 KXBP 130855Z AUTO 18007KT 10SM CLR 28/19 A2991 RMK AO2 T02800185
 
K0F2 - Bowie, Texas, USA
Distance from Wildwood: NNW 24mi, 39km
aktuell: Aug 13, 2020 3:55am
klar
klar
 Wind von SSO
Wind: SSO 6 mph , 9 km/h
Temperatur: 77°F , 25°C
Taupunkt: 68°F , 20°C
Luftfeuchte: 74%
Luftdruck: 29.90 inHg , 1012.5 hPa
Clouds: klar
Visibility: 10 miles , 16 km
2020/08/13 08:55 K0F2 130855Z AUTO 15005KT 10SM CLR 25/20 A2990 RMK AO2 T02540203
KDTO - Denton, Texas, USA
Distance from Wildwood: O 27mi, 44km
aktuell: Aug 13, 2020 3:53am
klar
klar
 Wind von SSO
Wind: SSO 7 mph , 11 km/h
Temperatur: 84°F , 29°C
Heat Index: 88°F , 31°C
Taupunkt: 70°F , 21°C
Luftfeuchte: 62%
Luftdruck: 29.90 inHg , 1012.5 hPa
Clouds: klar
Visibility: 10 miles , 16 km
2020/08/13 08:53 KDTO 130853Z AUTO 16006KT 10SM CLR 29/21 A2990 RMK AO2 SLP112 T02890206 55004
 
KAFW - Ft Worth/Allianc, Texas, USA
Distance from Wildwood: SO 29mi, 46km
aktuell: Aug 13, 2020 3:53am
Few Clouds
Few Clouds
 Wind von S
Wind: S 10 mph , 17 km/h
Temperatur: 84°F , 29°C
Heat Index: 88°F , 31°C
Taupunkt: 70°F , 21°C
Luftfeuchte: 62%
Luftdruck: 29.89 inHg , 1012.2 hPa
Clouds: Few Clouds
Visibility: 10 miles , 16 km
Cloud details: Few Clouds 30000 ft
2020/08/13 08:53 KAFW 130853Z 19009KT 10SM FEW300 29/21 A2989 RMK AO2 SLP101 T02940211 55004
KFTW - Fort Worth, Texas, USA
Distance from Wildwood: SSO 34mi, 55km
aktuell: Aug 13, 2020 3:53am
klar
klar
 Wind von S
Wind: S 13 mph , 20 km/h, Windböen: 22 mph , 35 km/h
Temperatur: 84°F , 29°C
Luftdruck: 29.89 inHg , 1012.2 hPa
Clouds: klar
Visibility: 10 miles , 16 km
2020/08/13 08:53 KFTW 130853Z AUTO 17011G19KT 10SM CLR 29/ A2989 RMK AO2 SLP109 T0294 57005 $
 
KNFW - Fort Worth Nas, Texas, USA
Distance from Wildwood: SSO 36mi, 58km
aktuell: Aug 13, 2020 3:52am
klar
klar
 Wind von S
Wind: S 16 mph , 26 km/h
Temperatur: 88°F , 31°C
Heat Index: 93°F , 34°C
Taupunkt: 70°F , 21°C
Luftfeuchte: 55%
Luftdruck: 29.89 inHg , 1012.2 hPa
Clouds: klar
Visibility: 10 miles , 16 km
2020/08/13 08:52 KNFW 130852Z AUTO 19014KT 10SM CLR 31/21 A2989 RMK AO2 SLP106 T03060211 57005 VISNO N $
KGLE - Gainesville, Texas, USA
Distance from Wildwood: NO 38mi, 61km
aktuell: Aug 13, 2020 3:55am
klar
klar
 Wind von SO
Wind: SO 7 mph , 11 km/h
Temperatur: 79°F , 26°C
Taupunkt: 75°F , 24°C
Luftfeuchte: 89%
Luftdruck: 29.92 inHg , 1013.2 hPa
Clouds: klar
Visibility: 10 miles , 16 km
2020/08/13 08:55 KGLE 130855Z AUTO 14006KT 10SM CLR 26/24 A2992 RMK AO2 T02550235
 
KMWL - Mineral Wells, Texas, USA
Distance from Wildwood: SW 41mi, 65km
aktuell: Aug 13, 2020 3:53am
klar
klar
 Wind von SSO
Wind: SSO 12 mph , 19 km/h
Temperatur: 81°F , 27°C
Heat Index: 83°F , 28°C
Taupunkt: 66°F , 19°C
Luftfeuchte: 62%
Luftdruck: 29.89 inHg , 1012.2 hPa
Clouds: klar
Visibility: 10 miles , 16 km
2020/08/13 08:53 KMWL 130853Z AUTO 15010KT 10SM CLR 27/19 A2989 RMK AO2 SLP104 T02720189 50000
KDFW - Dallas/Ft Worth, Texas, USA
Distance from Wildwood: OSO 45mi, 73km
aktuell: Aug 13, 2020 3:53am
klar
klar
 Wind von S
Wind: S 16 mph , 26 km/h
Temperatur: 84°F , 29°C
Heat Index: 89°F , 32°C
Taupunkt: 72°F , 22°C
Luftfeuchte: 66%
Luftdruck: 29.88 inHg , 1011.9 hPa
Clouds: klar
Visibility: 10 miles , 16 km
2020/08/13 08:53 KDFW 130853Z 19014KT 10SM CLR 29/22 A2988 RMK AO2 SLP108 T02940222 56006